Randolph, MN (55065)

11:10 PM CDT on July 29, 2015 (GMT -0500)
Stanton | | Change Station
CLOSE
Current Station
Airport
Location: Stanton,
Elevation: 919 ft
Nearby Weather Stations

Elev 919 ft 44.47 °N, 93.01 °W | Updated 17 minutes ago

Clear
Clear
70 °F
Feels Like 70 °F
N
9
Wind Variable Wind from SW

Today
High -- | Low -- °F
--% Chance of Precip.
Yesterday
High -- | Low -- °F
Precip. -- in
5:55 AM 8:41 PM
Waxing Gibbous, 98% visible
Pressure 30.00 in
Visibility 10.0 miles
Clouds Clear
Dew Point 55 °F
Humidity 59%
Rainfall 0.00 in
Snow Depth Not available.
UV 0 out of 12
Pollen 8.00 out of 12
Air Quality Not available.
Flu Activity Not available.
METAR KSYN 300353Z AUTO 23008KT 10SM CLR 21/13 A3000 RMK AO2 T02100126

More Conditions Fewer Conditions

Pressure 30.00 in
Visibility 10.0 miles
Clouds Clear
Dew Point 55 °F
Humidity 59%
Rainfall 0.00 in
Snow Depth Not available.
UV 0 out of 12
Pollen 8.00 out of 12
Air Quality Not available.
Flu Activity Not available.
METAR KSYN 300353Z AUTO 23008KT 10SM CLR 21/13 A3000 RMK AO2 T02100126

More Conditions Fewer Conditions

10-Day Weather Forecast

×

Almanac

Astronomy

Jul. 29, 2015 Rise Set
Actual Time
Civil Twilight
Nautical Twilight
Astronomical Twilight
Moon
Length of Visible Light
Length of Day
Tomorrow will be .
, % of the Moon is Illuminated

Today's Extremes

State Highs State Lows

Community

WunderPhotos

Upload Photos

1,842,300 photos uploaded!

WunderBlogs® & News

Nearby

Air Quality

  Air Quality AQ Index Pollutant
Not available.

Snow Depth

Station Depth Elevation

Earthquake Activity

City Distance Mag. Time & Date
Minimum magnitude displayed is 2.5.

Coastal Water Temperatures

Place Temperature

Stations

Nearby Weather Stations

Station Location Temp. Windchill Dew Point Humidity Wind Precip. Elev Updated Type